sensor_id;sensor_type;location;lat;lon;timestamp;temperature;humidity
53410;DHT22;66590;50.734;4.246;2023-07-31T00:00:17;17.50;99.90
53410;DHT22;66590;50.734;4.246;2023-07-31T00:02:44;17.50;99.90
53410;DHT22;66590;50.734;4.246;2023-07-31T00:05:12;17.40;99.90
53410;DHT22;66590;50.734;4.246;2023-07-31T00:07:39;17.40;99.90
53410;DHT22;66590;50.734;4.246;2023-07-31T00:10:07;17.40;99.90
53410;DHT22;66590;50.734;4.246;2023-07-31T00:12:34;17.50;99.90
53410;DHT22;66590;50.734;4.246;2023-07-31T00:15:01;17.50;99.90
53410;DHT22;66590;50.734;4.246;2023-07-31T00:17:28;17.50;99.90
53410;DHT22;66590;50.734;4.246;2023-07-31T00:19:55;17.50;99.90
53410;DHT22;66590;50.734;4.246;2023-07-31T00:22:23;17.40;99.90
53410;DHT22;66590;50.734;4.246;2023-07-31T00:24:50;17.40;99.90
53410;DHT22;66590;50.734;4.246;2023-07-31T00:27:17;17.40;99.90
53410;DHT22;66590;50.734;4.246;2023-07-31T00:29:44;17.30;99.90
53410;DHT22;66590;50.734;4.246;2023-07-31T00:32:11;17.30;99.90
53410;DHT22;66590;50.734;4.246;2023-07-31T00:34:38;17.40;99.90
53410;DHT22;66590;50.734;4.246;2023-07-31T00:37:05;17.40;99.90
53410;DHT22;66590;50.734;4.246;2023-07-31T00:39:34;17.40;99.90
53410;DHT22;66590;50.734;4.246;2023-07-31T00:42:02;17.40;99.90
53410;DHT22;66590;50.734;4.246;2023-07-31T00:44:31;17.40;99.90
53410;DHT22;66590;50.734;4.246;2023-07-31T00:46:58;17.50;99.90
53410;DHT22;66590;50.734;4.246;2023-07-31T00:49:25;17.60;99.90
53410;DHT22;66590;50.734;4.246;2023-07-31T00:51:53;17.60;99.90
53410;DHT22;66590;50.734;4.246;2023-07-31T00:54:20;17.60;99.90
53410;DHT22;66590;50.734;4.246;2023-07-31T00:56:50;17.50;99.90
53410;DHT22;66590;50.734;4.246;2023-07-31T00:59:19;17.40;99.90
53410;DHT22;66590;50.734;4.246;2023-07-31T01:01:46;17.40;99.90
53410;DHT22;66590;50.734;4.246;2023-07-31T01:04:14;17.50;99.90
53410;DHT22;66590;50.734;4.246;2023-07-31T01:06:47;17.50;99.90
53410;DHT22;66590;50.734;4.246;2023-07-31T01:09:30;17.40;99.90
53410;DHT22;66590;50.734;4.246;2023-07-31T01:12:03;17.30;99.90
53410;DHT22;66590;50.734;4.246;2023-07-31T01:14:30;17.20;99.90
53410;DHT22;66590;50.734;4.246;2023-07-31T01:16:57;17.40;99.90
53410;DHT22;66590;50.734;4.246;2023-07-31T01:19:25;17.40;99.90
53410;DHT22;66590;50.734;4.246;2023-07-31T01:22:22;17.40;99.90
53410;DHT22;66590;50.734;4.246;2023-07-31T01:25:00;17.40;99.90
53410;DHT22;66590;50.734;4.246;2023-07-31T01:27:35;17.50;99.90
53410;DHT22;66590;50.734;4.246;2023-07-31T01:30:09;17.40;99.90
53410;DHT22;66590;50.734;4.246;2023-07-31T01:32:40;17.40;99.90
53410;DHT22;66590;50.734;4.246;2023-07-31T01:35:07;17.50;99.90
53410;DHT22;66590;50.734;4.246;2023-07-31T01:37:34;17.40;99.90
53410;DHT22;66590;50.734;4.246;2023-07-31T01:40:02;17.50;99.90
53410;DHT22;66590;50.734;4.246;2023-07-31T01:42:29;17.50;99.90
53410;DHT22;66590;50.734;4.246;2023-07-31T01:44:57;17.40;99.90
53410;DHT22;66590;50.734;4.246;2023-07-31T01:47:24;17.40;99.90
53410;DHT22;66590;50.734;4.246;2023-07-31T01:49:51;17.40;99.90
53410;DHT22;66590;50.734;4.246;2023-07-31T01:52:19;17.40;99.90
53410;DHT22;66590;50.734;4.246;2023-07-31T01:54:45;17.40;99.90
53410;DHT22;66590;50.734;4.246;2023-07-31T01:57:12;17.50;99.90
53410;DHT22;66590;50.734;4.246;2023-07-31T01:59:39;17.40;99.90
53410;DHT22;66590;50.734;4.246;2023-07-31T02:02:08;17.40;99.90
53410;DHT22;66590;50.734;4.246;2023-07-31T02:04:35;17.50;99.90
53410;DHT22;66590;50.734;4.246;2023-07-31T02:07:02;17.60;99.90
53410;DHT22;66590;50.734;4.246;2023-07-31T02:09:29;17.70;99.90
53410;DHT22;66590;50.734;4.246;2023-07-31T02:11:56;17.60;99.90
53410;DHT22;66590;50.734;4.246;2023-07-31T02:14:23;17.50;99.90
53410;DHT22;66590;50.734;4.246;2023-07-31T02:16:50;17.50;99.90
53410;DHT22;66590;50.734;4.246;2023-07-31T02:19:18;17.60;99.90
53410;DHT22;66590;50.734;4.246;2023-07-31T02:21:45;17.60;99.90
53410;DHT22;66590;50.734;4.246;2023-07-31T02:24:12;17.60;99.90
53410;DHT22;66590;50.734;4.246;2023-07-31T02:26:39;17.40;99.90
53410;DHT22;66590;50.734;4.246;2023-07-31T02:29:06;17.30;99.90
53410;DHT22;66590;50.734;4.246;2023-07-31T02:31:33;17.40;99.90
53410;DHT22;66590;50.734;4.246;2023-07-31T02:34:00;17.40;99.90
53410;DHT22;66590;50.734;4.246;2023-07-31T02:36:29;17.50;99.90
53410;DHT22;66590;50.734;4.246;2023-07-31T02:38:56;17.50;99.90
53410;DHT22;66590;50.734;4.246;2023-07-31T02:41:23;17.50;99.90
53410;DHT22;66590;50.734;4.246;2023-07-31T02:43:49;17.40;99.90
53410;DHT22;66590;50.734;4.246;2023-07-31T02:46:18;17.60;99.90
53410;DHT22;66590;50.734;4.246;2023-07-31T02:48:45;17.40;99.90
53410;DHT22;66590;50.734;4.246;2023-07-31T02:51:13;17.50;99.90
53410;DHT22;66590;50.734;4.246;2023-07-31T02:53:41;17.50;99.90
53410;DHT22;66590;50.734;4.246;2023-07-31T02:56:08;17.40;99.90
53410;DHT22;66590;50.734;4.246;2023-07-31T02:58:35;17.40;99.90
53410;DHT22;66590;50.734;4.246;2023-07-31T03:01:02;17.50;99.90
53410;DHT22;66590;50.734;4.246;2023-07-31T03:03:29;17.40;99.90
53410;DHT22;66590;50.734;4.246;2023-07-31T03:05:56;17.40;99.90
53410;DHT22;66590;50.734;4.246;2023-07-31T03:08:23;17.30;99.90
53410;DHT22;66590;50.734;4.246;2023-07-31T03:10:51;17.40;99.90
53410;DHT22;66590;50.734;4.246;2023-07-31T03:13:18;17.40;99.90
53410;DHT22;66590;50.734;4.246;2023-07-31T03:15:45;17.50;99.90
53410;DHT22;66590;50.734;4.246;2023-07-31T03:18:12;17.50;99.90
53410;DHT22;66590;50.734;4.246;2023-07-31T03:20:42;17.60;99.90
53410;DHT22;66590;50.734;4.246;2023-07-31T03:23:09;17.40;99.90
53410;DHT22;66590;50.734;4.246;2023-07-31T03:25:36;17.50;99.90
53410;DHT22;66590;50.734;4.246;2023-07-31T03:28:04;17.50;99.90
53410;DHT22;66590;50.734;4.246;2023-07-31T03:30:32;17.60;99.90
53410;DHT22;66590;50.734;4.246;2023-07-31T03:32:59;17.40;99.90
53410;DHT22;66590;50.734;4.246;2023-07-31T03:35:26;17.40;99.90
53410;DHT22;66590;50.734;4.246;2023-07-31T03:37:53;17.30;99.90
53410;DHT22;66590;50.734;4.246;2023-07-31T03:40:20;17.30;99.90
53410;DHT22;66590;50.734;4.246;2023-07-31T03:42:46;17.30;99.90
53410;DHT22;66590;50.734;4.246;2023-07-31T03:45:15;17.40;99.90
53410;DHT22;66590;50.734;4.246;2023-07-31T03:47:42;17.30;99.90
53410;DHT22;66590;50.734;4.246;2023-07-31T03:50:09;17.30;99.90
53410;DHT22;66590;50.734;4.246;2023-07-31T03:52:36;17.30;99.90
53410;DHT22;66590;50.734;4.246;2023-07-31T03:55:04;17.30;99.90
53410;DHT22;66590;50.734;4.246;2023-07-31T03:57:31;17.30;99.90
53410;DHT22;66590;50.734;4.246;2023-07-31T03:59:58;17.20;99.90
53410;DHT22;66590;50.734;4.246;2023-07-31T04:02:26;17.30;99.90
53410;DHT22;66590;50.734;4.246;2023-07-31T04:04:53;17.40;99.90
53410;DHT22;66590;50.734;4.246;2023-07-31T04:07:20;17.40;99.90
53410;DHT22;66590;50.734;4.246;2023-07-31T04:09:47;17.40;99.90
53410;DHT22;66590;50.734;4.246;2023-07-31T04:12:14;17.30;99.90
53410;DHT22;66590;50.734;4.246;2023-07-31T04:14:41;17.30;99.90
53410;DHT22;66590;50.734;4.246;2023-07-31T04:17:08;17.40;99.90
53410;DHT22;66590;50.734;4.246;2023-07-31T04:19:39;17.50;99.90
53410;DHT22;66590;50.734;4.246;2023-07-31T04:22:06;17.40;99.90
53410;DHT22;66590;50.734;4.246;2023-07-31T04:24:33;17.40;99.90
53410;DHT22;66590;50.734;4.246;2023-07-31T04:27:00;17.60;99.90
53410;DHT22;66590;50.734;4.246;2023-07-31T04:29:27;17.50;99.90
53410;DHT22;66590;50.734;4.246;2023-07-31T04:31:54;17.40;99.90
53410;DHT22;66590;50.734;4.246;2023-07-31T04:34:21;17.40;99.90
53410;DHT22;66590;50.734;4.246;2023-07-31T04:36:49;17.40;99.90
53410;DHT22;66590;50.734;4.246;2023-07-31T04:39:16;17.40;99.90
53410;DHT22;66590;50.734;4.246;2023-07-31T04:41:43;17.30;99.90
53410;DHT22;66590;50.734;4.246;2023-07-31T04:44:10;17.40;99.90
53410;DHT22;66590;50.734;4.246;2023-07-31T04:46:37;17.30;99.90
53410;DHT22;66590;50.734;4.246;2023-07-31T04:49:04;17.40;99.90
53410;DHT22;66590;50.734;4.246;2023-07-31T04:51:32;17.50;99.90
53410;DHT22;66590;50.734;4.246;2023-07-31T04:54:00;17.50;99.90
53410;DHT22;66590;50.734;4.246;2023-07-31T04:56:27;17.40;99.90
53410;DHT22;66590;50.734;4.246;2023-07-31T04:58:54;17.30;99.90
53410;DHT22;66590;50.734;4.246;2023-07-31T05:01:21;17.30;99.90
53410;DHT22;66590;50.734;4.246;2023-07-31T05:03:48;17.20;99.90
53410;DHT22;66590;50.734;4.246;2023-07-31T05:06:15;17.10;99.90
53410;DHT22;66590;50.734;4.246;2023-07-31T05:08:42;17.10;99.90
53410;DHT22;66590;50.734;4.246;2023-07-31T05:11:11;17.00;99.90
53410;DHT22;66590;50.734;4.246;2023-07-31T05:13:38;17.10;99.90
53410;DHT22;66590;50.734;4.246;2023-07-31T05:16:05;17.10;99.90
53410;DHT22;66590;50.734;4.246;2023-07-31T05:18:32;17.10;99.90
53410;DHT22;66590;50.734;4.246;2023-07-31T05:20:59;17.00;99.90
53410;DHT22;66590;50.734;4.246;2023-07-31T05:23:26;17.00;99.90
53410;DHT22;66590;50.734;4.246;2023-07-31T05:25:53;17.00;99.90
53410;DHT22;66590;50.734;4.246;2023-07-31T05:28:22;17.00;99.90
53410;DHT22;66590;50.734;4.246;2023-07-31T05:30:49;17.10;99.90
53410;DHT22;66590;50.734;4.246;2023-07-31T05:33:16;16.90;99.90
53410;DHT22;66590;50.734;4.246;2023-07-31T05:35:43;16.80;99.90
53410;DHT22;66590;50.734;4.246;2023-07-31T05:38:10;17.00;99.90
53410;DHT22;66590;50.734;4.246;2023-07-31T05:40:37;17.00;99.90
53410;DHT22;66590;50.734;4.246;2023-07-31T05:43:04;17.00;99.90
53410;DHT22;66590;50.734;4.246;2023-07-31T05:45:33;17.00;99.90
53410;DHT22;66590;50.734;4.246;2023-07-31T05:48:00;17.00;99.90
53410;DHT22;66590;50.734;4.246;2023-07-31T05:50:27;17.10;99.90
53410;DHT22;66590;50.734;4.246;2023-07-31T05:52:54;17.00;99.90
53410;DHT22;66590;50.734;4.246;2023-07-31T05:55:21;17.00;99.90
53410;DHT22;66590;50.734;4.246;2023-07-31T05:57:47;17.00;99.90
53410;DHT22;66590;50.734;4.246;2023-07-31T06:00:15;16.90;99.90
53410;DHT22;66590;50.734;4.246;2023-07-31T06:02:43;16.90;99.90
53410;DHT22;66590;50.734;4.246;2023-07-31T06:05:10;17.10;99.90
53410;DHT22;66590;50.734;4.246;2023-07-31T06:07:37;17.20;99.90
53410;DHT22;66590;50.734;4.246;2023-07-31T06:10:05;17.20;99.90
53410;DHT22;66590;50.734;4.246;2023-07-31T06:12:33;17.10;99.90
53410;DHT22;66590;50.734;4.246;2023-07-31T06:15:00;17.00;99.90
53410;DHT22;66590;50.734;4.246;2023-07-31T06:17:27;17.10;99.90
53410;DHT22;66590;50.734;4.246;2023-07-31T06:19:56;17.10;99.90
53410;DHT22;66590;50.734;4.246;2023-07-31T06:22:23;17.00;99.90
53410;DHT22;66590;50.734;4.246;2023-07-31T06:24:50;17.20;99.90
53410;DHT22;66590;50.734;4.246;2023-07-31T06:27:17;17.30;99.90
53410;DHT22;66590;50.734;4.246;2023-07-31T06:29:44;17.20;99.90
53410;DHT22;66590;50.734;4.246;2023-07-31T06:32:11;17.30;99.90
53410;DHT22;66590;50.734;4.246;2023-07-31T06:34:38;17.20;99.90
53410;DHT22;66590;50.734;4.246;2023-07-31T06:37:06;17.30;99.90
53410;DHT22;66590;50.734;4.246;2023-07-31T06:39:33;17.40;99.90
53410;DHT22;66590;50.734;4.246;2023-07-31T06:42:00;17.50;99.90
53410;DHT22;66590;50.734;4.246;2023-07-31T06:44:27;17.40;99.90
53410;DHT22;66590;50.734;4.246;2023-07-31T06:46:54;17.40;99.90
53410;DHT22;66590;50.734;4.246;2023-07-31T06:49:21;17.40;99.90
53410;DHT22;66590;50.734;4.246;2023-07-31T06:51:48;17.50;99.90
53410;DHT22;66590;50.734;4.246;2023-07-31T06:54:17;17.50;99.90
53410;DHT22;66590;50.734;4.246;2023-07-31T06:56:44;17.50;99.90
53410;DHT22;66590;50.734;4.246;2023-07-31T06:59:11;17.70;99.90
53410;DHT22;66590;50.734;4.246;2023-07-31T07:01:38;17.90;99.90
53410;DHT22;66590;50.734;4.246;2023-07-31T07:04:05;18.10;99.90
53410;DHT22;66590;50.734;4.246;2023-07-31T07:06:32;18.20;99.90
53410;DHT22;66590;50.734;4.246;2023-07-31T07:08:59;18.30;99.90
53410;DHT22;66590;50.734;4.246;2023-07-31T07:11:27;18.30;99.90
53410;DHT22;66590;50.734;4.246;2023-07-31T07:13:54;18.20;99.90
53410;DHT22;66590;50.734;4.246;2023-07-31T07:16:21;18.20;99.90
53410;DHT22;66590;50.734;4.246;2023-07-31T07:18:48;18.30;99.90
53410;DHT22;66590;50.734;4.246;2023-07-31T07:21:29;18.30;99.90
53410;DHT22;66590;50.734;4.246;2023-07-31T07:23:56;18.20;99.90
53410;DHT22;66590;50.734;4.246;2023-07-31T07:26:23;18.30;99.90
53410;DHT22;66590;50.734;4.246;2023-07-31T07:28:52;18.10;99.90
53410;DHT22;66590;50.734;4.246;2023-07-31T07:31:18;18.30;99.90
53410;DHT22;66590;50.734;4.246;2023-07-31T07:33:46;18.10;99.90
53410;DHT22;66590;50.734;4.246;2023-07-31T07:36:12;18.00;99.90
53410;DHT22;66590;50.734;4.246;2023-07-31T07:38:39;17.90;99.90
53410;DHT22;66590;50.734;4.246;2023-07-31T07:41:06;18.00;99.90
53410;DHT22;66590;50.734;4.246;2023-07-31T07:43:33;18.00;99.90
53410;DHT22;66590;50.734;4.246;2023-07-31T07:46:01;18.00;99.90
53410;DHT22;66590;50.734;4.246;2023-07-31T07:48:29;17.90;99.90
53410;DHT22;66590;50.734;4.246;2023-07-31T07:50:56;17.90;99.90
53410;DHT22;66590;50.734;4.246;2023-07-31T07:53:23;18.00;99.90
53410;DHT22;66590;50.734;4.246;2023-07-31T07:55:50;18.10;99.90
53410;DHT22;66590;50.734;4.246;2023-07-31T07:58:17;18.00;99.90
53410;DHT22;66590;50.734;4.246;2023-07-31T08:00:48;18.00;99.90
53410;DHT22;66590;50.734;4.246;2023-07-31T08:03:17;17.80;99.90
53410;DHT22;66590;50.734;4.246;2023-07-31T08:05:44;17.80;99.90
53410;DHT22;66590;50.734;4.246;2023-07-31T08:08:14;17.80;99.90
53410;DHT22;66590;50.734;4.246;2023-07-31T08:10:41;17.80;99.90
53410;DHT22;66590;50.734;4.246;2023-07-31T08:13:09;17.80;99.90
53410;DHT22;66590;50.734;4.246;2023-07-31T08:15:36;17.80;99.90
53410;DHT22;66590;50.734;4.246;2023-07-31T08:18:03;17.80;99.90
53410;DHT22;66590;50.734;4.246;2023-07-31T08:20:32;17.70;99.90
53410;DHT22;66590;50.734;4.246;2023-07-31T08:22:59;17.70;99.90
53410;DHT22;66590;50.734;4.246;2023-07-31T08:25:26;17.70;99.90
53410;DHT22;66590;50.734;4.246;2023-07-31T08:27:53;17.60;99.90
53410;DHT22;66590;50.734;4.246;2023-07-31T08:30:21;17.80;99.90
53410;DHT22;66590;50.734;4.246;2023-07-31T08:32:49;17.90;99.90
53410;DHT22;66590;50.734;4.246;2023-07-31T08:35:16;18.10;99.90
53410;DHT22;66590;50.734;4.246;2023-07-31T08:37:44;18.10;99.90
53410;DHT22;66590;50.734;4.246;2023-07-31T08:40:11;18.00;99.90
53410;DHT22;66590;50.734;4.246;2023-07-31T08:42:43;17.80;99.90
53410;DHT22;66590;50.734;4.246;2023-07-31T08:45:14;17.70;99.90
53410;DHT22;66590;50.734;4.246;2023-07-31T08:47:43;17.80;99.90
53410;DHT22;66590;50.734;4.246;2023-07-31T08:50:17;17.80;99.90
53410;DHT22;66590;50.734;4.246;2023-07-31T08:52:46;17.90;99.90
53410;DHT22;66590;50.734;4.246;2023-07-31T08:55:13;18.00;99.90
53410;DHT22;66590;50.734;4.246;2023-07-31T08:57:42;18.20;99.90
53410;DHT22;66590;50.734;4.246;2023-07-31T09:00:10;18.30;99.90
53410;DHT22;66590;50.734;4.246;2023-07-31T09:02:48;18.00;99.90
53410;DHT22;66590;50.734;4.246;2023-07-31T09:05:16;18.20;99.90
53410;DHT22;66590;50.734;4.246;2023-07-31T09:07:47;18.30;99.90
53410;DHT22;66590;50.734;4.246;2023-07-31T09:10:14;18.60;99.90
53410;DHT22;66590;50.734;4.246;2023-07-31T09:12:41;18.50;99.90
53410;DHT22;66590;50.734;4.246;2023-07-31T09:15:09;18.40;99.90
53410;DHT22;66590;50.734;4.246;2023-07-31T09:17:59;18.70;99.90
53410;DHT22;66590;50.734;4.246;2023-07-31T09:20:26;18.80;99.90
53410;DHT22;66590;50.734;4.246;2023-07-31T09:22:55;18.80;99.90
53410;DHT22;66590;50.734;4.246;2023-07-31T09:25:24;18.70;99.90
53410;DHT22;66590;50.734;4.246;2023-07-31T09:27:57;18.50;99.90
53410;DHT22;66590;50.734;4.246;2023-07-31T09:30:25;18.60;99.90
53410;DHT22;66590;50.734;4.246;2023-07-31T09:33:01;18.30;99.90
53410;DHT22;66590;50.734;4.246;2023-07-31T09:35:30;18.40;99.90
53410;DHT22;66590;50.734;4.246;2023-07-31T09:38:00;18.70;99.90
53410;DHT22;66590;50.734;4.246;2023-07-31T09:40:29;18.80;99.90
53410;DHT22;66590;50.734;4.246;2023-07-31T09:42:57;18.90;99.90
53410;DHT22;66590;50.734;4.246;2023-07-31T09:45:25;18.80;99.90
53410;DHT22;66590;50.734;4.246;2023-07-31T09:48:08;18.70;99.90
53410;DHT22;66590;50.734;4.246;2023-07-31T09:50:37;18.50;99.90
53410;DHT22;66590;50.734;4.246;2023-07-31T09:53:06;18.50;99.90
53410;DHT22;66590;50.734;4.246;2023-07-31T09:55:33;18.60;99.90
53410;DHT22;66590;50.734;4.246;2023-07-31T09:58:03;18.50;99.90
53410;DHT22;66590;50.734;4.246;2023-07-31T10:00:31;18.80;99.90
53410;DHT22;66590;50.734;4.246;2023-07-31T10:02:59;19.00;99.90
53410;DHT22;66590;50.734;4.246;2023-07-31T10:05:31;19.00;99.90
53410;DHT22;66590;50.734;4.246;2023-07-31T10:07:58;19.00;99.90
53410;DHT22;66590;50.734;4.246;2023-07-31T10:10:27;19.00;99.90
53410;DHT22;66590;50.734;4.246;2023-07-31T10:12:55;18.80;99.90
53410;DHT22;66590;50.734;4.246;2023-07-31T10:15:22;19.00;99.90
53410;DHT22;66590;50.734;4.246;2023-07-31T10:17:50;19.10;99.90
53410;DHT22;66590;50.734;4.246;2023-07-31T10:20:18;19.10;99.90
53410;DHT22;66590;50.734;4.246;2023-07-31T10:22:46;19.00;99.90
53410;DHT22;66590;50.734;4.246;2023-07-31T10:25:13;18.80;99.90
53410;DHT22;66590;50.734;4.246;2023-07-31T10:27:43;18.70;99.90
53410;DHT22;66590;50.734;4.246;2023-07-31T10:30:13;18.90;99.90
53410;DHT22;66590;50.734;4.246;2023-07-31T10:32:45;19.20;99.90
53410;DHT22;66590;50.734;4.246;2023-07-31T10:35:15;19.30;99.90
53410;DHT22;66590;50.734;4.246;2023-07-31T10:37:42;19.30;99.90
53410;DHT22;66590;50.734;4.246;2023-07-31T10:40:13;19.20;99.90
53410;DHT22;66590;50.734;4.246;2023-07-31T10:42:48;19.30;99.90
53410;DHT22;66590;50.734;4.246;2023-07-31T10:45:24;19.30;99.90
53410;DHT22;66590;50.734;4.246;2023-07-31T10:47:58;19.40;99.90
53410;DHT22;66590;50.734;4.246;2023-07-31T10:50:26;19.40;99.90
53410;DHT22;66590;50.734;4.246;2023-07-31T10:52:54;19.50;99.90
53410;DHT22;66590;50.734;4.246;2023-07-31T10:55:31;19.60;99.90
53410;DHT22;66590;50.734;4.246;2023-07-31T10:58:05;19.70;99.90
53410;DHT22;66590;50.734;4.246;2023-07-31T11:00:33;20.00;99.90
53410;DHT22;66590;50.734;4.246;2023-07-31T11:03:02;20.30;99.90
53410;DHT22;66590;50.734;4.246;2023-07-31T11:06:00;20.40;99.90
53410;DHT22;66590;50.734;4.246;2023-07-31T11:08:28;20.50;99.90
53410;DHT22;66590;50.734;4.246;2023-07-31T11:11:05;20.20;99.90
53410;DHT22;66590;50.734;4.246;2023-07-31T11:13:41;20.40;99.90
53410;DHT22;66590;50.734;4.246;2023-07-31T11:16:09;20.30;99.90
53410;DHT22;66590;50.734;4.246;2023-07-31T11:18:37;20.10;99.90
53410;DHT22;66590;50.734;4.246;2023-07-31T11:21:05;20.00;99.90
53410;DHT22;66590;50.734;4.246;2023-07-31T11:23:31;19.90;99.90
53410;DHT22;66590;50.734;4.246;2023-07-31T11:26:00;19.90;99.90
53410;DHT22;66590;50.734;4.246;2023-07-31T11:28:31;20.10;99.90
53410;DHT22;66590;50.734;4.246;2023-07-31T11:31:00;20.00;99.90
53410;DHT22;66590;50.734;4.246;2023-07-31T11:33:27;20.00;99.90
53410;DHT22;66590;50.734;4.246;2023-07-31T11:35:54;20.10;99.90
53410;DHT22;66590;50.734;4.246;2023-07-31T11:38:22;20.00;99.90
53410;DHT22;66590;50.734;4.246;2023-07-31T11:40:50;20.00;99.90
53410;DHT22;66590;50.734;4.246;2023-07-31T11:43:18;20.00;99.90
53410;DHT22;66590;50.734;4.246;2023-07-31T11:45:47;20.00;99.90
53410;DHT22;66590;50.734;4.246;2023-07-31T11:48:23;19.90;99.90
53410;DHT22;66590;50.734;4.246;2023-07-31T11:50:50;20.00;99.90
53410;DHT22;66590;50.734;4.246;2023-07-31T11:53:21;19.90;99.90
53410;DHT22;66590;50.734;4.246;2023-07-31T11:55:51;20.10;99.90
53410;DHT22;66590;50.734;4.246;2023-07-31T11:58:19;20.30;99.90
53410;DHT22;66590;50.734;4.246;2023-07-31T12:00:46;20.50;99.90
53410;DHT22;66590;50.734;4.246;2023-07-31T12:03:14;20.70;99.90
53410;DHT22;66590;50.734;4.246;2023-07-31T12:05:42;20.80;99.90
53410;DHT22;66590;50.734;4.246;2023-07-31T12:08:10;20.70;99.90
53410;DHT22;66590;50.734;4.246;2023-07-31T12:10:38;20.70;99.90
53410;DHT22;66590;50.734;4.246;2023-07-31T12:13:07;20.70;99.90
53410;DHT22;66590;50.734;4.246;2023-07-31T12:15:39;20.70;99.90
53410;DHT22;66590;50.734;4.246;2023-07-31T12:18:08;20.70;99.90
53410;DHT22;66590;50.734;4.246;2023-07-31T12:20:43;20.80;99.90
53410;DHT22;66590;50.734;4.246;2023-07-31T12:23:14;20.60;99.90
53410;DHT22;66590;50.734;4.246;2023-07-31T12:25:41;20.60;99.90
53410;DHT22;66590;50.734;4.246;2023-07-31T12:28:08;20.70;99.90
53410;DHT22;66590;50.734;4.246;2023-07-31T12:30:35;20.60;99.90
53410;DHT22;66590;50.734;4.246;2023-07-31T12:33:06;20.70;99.90
53410;DHT22;66590;50.734;4.246;2023-07-31T12:35:37;20.70;99.90
53410;DHT22;66590;50.734;4.246;2023-07-31T12:38:06;20.70;99.90
53410;DHT22;66590;50.734;4.246;2023-07-31T12:40:37;20.80;99.90
53410;DHT22;66590;50.734;4.246;2023-07-31T12:43:04;20.50;99.90
53410;DHT22;66590;50.734;4.246;2023-07-31T12:45:31;20.80;99.90
53410;DHT22;66590;50.734;4.246;2023-07-31T12:47:58;20.90;99.90
53410;DHT22;66590;50.734;4.246;2023-07-31T12:50:26;20.80;99.90
53410;DHT22;66590;50.734;4.246;2023-07-31T12:52:53;20.40;99.90
53410;DHT22;66590;50.734;4.246;2023-07-31T12:55:22;20.40;99.90
53410;DHT22;66590;50.734;4.246;2023-07-31T12:57:49;20.20;99.90
53410;DHT22;66590;50.734;4.246;2023-07-31T13:00:16;19.80;99.90
53410;DHT22;66590;50.734;4.246;2023-07-31T13:05:29;19.60;99.90
53410;DHT22;66590;50.734;4.246;2023-07-31T13:07:56;19.70;99.90
53410;DHT22;66590;50.734;4.246;2023-07-31T13:10:24;19.70;99.90
53410;DHT22;66590;50.734;4.246;2023-07-31T13:12:51;19.50;99.90
53410;DHT22;66590;50.734;4.246;2023-07-31T13:15:18;19.30;99.90
53410;DHT22;66590;50.734;4.246;2023-07-31T13:17:46;19.10;99.90
53410;DHT22;66590;50.734;4.246;2023-07-31T13:20:13;18.90;99.90
53410;DHT22;66590;50.734;4.246;2023-07-31T13:22:40;18.90;99.90
53410;DHT22;66590;50.734;4.246;2023-07-31T13:25:09;18.90;99.90
53410;DHT22;66590;50.734;4.246;2023-07-31T13:27:37;18.80;99.90
53410;DHT22;66590;50.734;4.246;2023-07-31T13:30:06;18.80;99.90
53410;DHT22;66590;50.734;4.246;2023-07-31T13:32:33;18.80;99.90
53410;DHT22;66590;50.734;4.246;2023-07-31T13:35:00;18.70;99.90
53410;DHT22;66590;50.734;4.246;2023-07-31T13:37:27;18.60;99.90
53410;DHT22;66590;50.734;4.246;2023-07-31T13:39:54;18.50;99.90
53410;DHT22;66590;50.734;4.246;2023-07-31T13:42:21;18.40;99.90
53410;DHT22;66590;50.734;4.246;2023-07-31T13:44:49;18.60;99.90
53410;DHT22;66590;50.734;4.246;2023-07-31T13:47:16;18.50;99.90
53410;DHT22;66590;50.734;4.246;2023-07-31T13:49:43;18.60;99.90
53410;DHT22;66590;50.734;4.246;2023-07-31T13:52:10;18.50;99.90
53410;DHT22;66590;50.734;4.246;2023-07-31T13:54:37;18.60;99.90
53410;DHT22;66590;50.734;4.246;2023-07-31T13:57:05;18.50;99.90
53410;DHT22;66590;50.734;4.246;2023-07-31T13:59:32;18.50;99.90
53410;DHT22;66590;50.734;4.246;2023-07-31T14:02:01;18.60;99.90
53410;DHT22;66590;50.734;4.246;2023-07-31T14:04:28;18.60;99.90
53410;DHT22;66590;50.734;4.246;2023-07-31T14:06:55;18.70;99.90
53410;DHT22;66590;50.734;4.246;2023-07-31T14:09:23;18.70;99.90
53410;DHT22;66590;50.734;4.246;2023-07-31T14:11:50;18.90;99.90
53410;DHT22;66590;50.734;4.246;2023-07-31T14:14:17;18.80;99.90
53410;DHT22;66590;50.734;4.246;2023-07-31T14:16:44;18.60;99.90
53410;DHT22;66590;50.734;4.246;2023-07-31T14:19:13;18.70;99.90
53410;DHT22;66590;50.734;4.246;2023-07-31T14:21:40;18.70;99.90
53410;DHT22;66590;50.734;4.246;2023-07-31T14:24:07;18.80;99.90
53410;DHT22;66590;50.734;4.246;2023-07-31T14:26:34;18.70;99.90
53410;DHT22;66590;50.734;4.246;2023-07-31T14:29:01;18.80;99.90
53410;DHT22;66590;50.734;4.246;2023-07-31T14:31:28;18.80;99.90
53410;DHT22;66590;50.734;4.246;2023-07-31T14:33:55;18.90;99.90
53410;DHT22;66590;50.734;4.246;2023-07-31T14:36:26;18.90;99.90
53410;DHT22;66590;50.734;4.246;2023-07-31T14:38:53;18.80;99.90
53410;DHT22;66590;50.734;4.246;2023-07-31T14:41:21;18.90;99.90
53410;DHT22;66590;50.734;4.246;2023-07-31T14:43:47;18.70;99.90
53410;DHT22;66590;50.734;4.246;2023-07-31T14:46:14;18.80;99.90
53410;DHT22;66590;50.734;4.246;2023-07-31T14:48:41;18.80;99.90
53410;DHT22;66590;50.734;4.246;2023-07-31T14:51:08;18.90;99.90
53410;DHT22;66590;50.734;4.246;2023-07-31T14:53:37;18.80;99.90
53410;DHT22;66590;50.734;4.246;2023-07-31T14:56:04;18.80;99.90
53410;DHT22;66590;50.734;4.246;2023-07-31T14:58:31;18.80;99.90
53410;DHT22;66590;50.734;4.246;2023-07-31T15:00:58;18.70;99.90
53410;DHT22;66590;50.734;4.246;2023-07-31T15:03:25;18.70;99.90
53410;DHT22;66590;50.734;4.246;2023-07-31T15:05:52;18.50;99.90
53410;DHT22;66590;50.734;4.246;2023-07-31T15:08:19;18.50;99.90
53410;DHT22;66590;50.734;4.246;2023-07-31T15:10:49;18.70;99.90
53410;DHT22;66590;50.734;4.246;2023-07-31T15:13:16;18.50;99.90
53410;DHT22;66590;50.734;4.246;2023-07-31T15:15:43;18.50;99.90
53410;DHT22;66590;50.734;4.246;2023-07-31T15:18:10;18.40;99.90
53410;DHT22;66590;50.734;4.246;2023-07-31T15:20:37;18.40;99.90
53410;DHT22;66590;50.734;4.246;2023-07-31T15:23:04;18.30;99.90
53410;DHT22;66590;50.734;4.246;2023-07-31T15:25:31;18.50;99.90
53410;DHT22;66590;50.734;4.246;2023-07-31T15:27:59;18.50;99.90
53410;DHT22;66590;50.734;4.246;2023-07-31T15:30:27;18.60;99.90
53410;DHT22;66590;50.734;4.246;2023-07-31T15:32:54;18.40;99.90
53410;DHT22;66590;50.734;4.246;2023-07-31T15:35:21;18.40;99.90
53410;DHT22;66590;50.734;4.246;2023-07-31T15:37:48;18.30;99.90